Time;durP1;ratioP1;P1;durP2;ratioP2;P2;SDS_P1;SDS_P2;PMS_P1;PMS_P2;Temp;Humidity;BMP_temperature;BMP_pressure;BME280_temperature;BME280_humidity;BME280_pressure;Samples;Min_cycle;Max_cycle;Signal;HPM_P1;HPM_P2
2022/06/05 00:00:27;;;;;;;6.70;4.70;;;17.70;99.90;;;17.49;100.00;97258.84;5003921;28;20040;-43
2022/06/05 00:03:08;;;;;;;5.88;4.78;;;17.70;99.90;;;17.44;100.00;97260.97;5003967;28;20030;-43
2022/06/05 00:06:03;;;;;;;5.80;5.20;;;17.60;99.90;;;17.39;100.00;97247.97;5003076;28;20014;-43
2022/06/05 00:09:03;;;;;;;8.02;4.97;;;17.60;99.90;;;17.34;100.00;97237.59;4996059;28;20030;-44
2022/06/05 00:11:53;;;;;;;5.38;4.78;;;17.50;99.90;;;17.28;100.00;97235.34;5015076;28;20065;-43
2022/06/05 00:14:20;;;;;;;6.40;4.75;;;17.50;99.90;;;17.26;100.00;97233.72;4993973;28;20085;-43
2022/06/05 00:16:45;;;;;;;6.22;5.22;;;17.40;99.90;;;17.22;100.00;97234.91;5003564;28;20022;-42
2022/06/05 00:19:12;;;;;;;6.25;4.95;;;17.40;99.90;;;17.17;100.00;97225.41;5002676;28;20049;-42
2022/06/05 00:21:38;;;;;;;5.57;4.85;;;17.40;99.90;;;17.15;100.00;97223.78;5003559;28;20142;-42
2022/06/05 00:24:04;;;;;;;5.32;4.82;;;17.30;99.90;;;17.11;100.00;97225.78;5008813;28;20050;-43
2022/06/05 00:26:50;;;;;;;5.80;4.88;;;17.30;99.90;;;17.07;100.00;97224.28;4999395;28;20022;-43
2022/06/05 00:29:46;;;;;;;5.88;5.28;;;17.30;99.90;;;17.04;100.00;97213.84;4999373;28;20067;-43
2022/06/05 00:32:32;;;;;;;5.85;5.22;;;17.20;99.90;;;17.00;100.00;97220.31;4997536;28;20064;-43
2022/06/05 00:34:58;;;;;;;6.50;5.43;;;17.20;99.90;;;16.95;100.00;97223.28;5006431;28;20113;-42
2022/06/05 00:37:38;;;;;;;6.05;5.45;;;17.20;99.90;;;16.96;100.00;97218.84;5007582;28;20375;-43
2022/06/05 00:40:25;;;;;;;6.53;5.30;;;17.10;99.90;;;16.94;100.00;97210.94;5002013;28;20026;-44
2022/06/05 00:42:52;;;;;;;5.68;5.05;;;17.20;99.90;;;16.93;100.00;97206.53;5007945;28;21736;-43
2022/06/05 00:45:19;;;;;;;6.10;5.50;;;17.10;99.90;;;16.92;100.00;97212.84;5001936;28;20081;-43
2022/06/05 00:47:46;;;;;;;5.45;4.78;;;17.10;99.90;;;16.91;100.00;97211.13;4999471;28;20109;-44
2022/06/05 00:50:27;;;;;;;6.45;5.82;;;17.10;99.90;;;16.93;100.00;97208.38;4999172;28;20458;-46
2022/06/05 00:52:57;;;;;;;6.93;5.93;;;17.10;99.90;;;16.95;100.00;97201.13;5005926;28;20022;-45
2022/06/05 00:55:25;;;;;;;9.10;5.57;;;17.20;99.90;;;16.96;100.00;97203.69;5006239;28;20060;-44
2022/06/05 00:57:54;;;;;;;7.20;5.80;;;17.20;99.90;;;16.96;100.00;97203.69;5007316;28;20258;-44
2022/06/05 01:00:29;;;;;;;6.40;5.80;;;17.20;99.90;;;16.98;100.00;97204.44;5002811;28;20115;-45
2022/06/05 01:02:58;;;;;;;6.63;5.35;;;17.20;99.90;;;16.98;100.00;97211.59;4998553;28;20022;-45
2022/06/05 01:05:26;;;;;;;7.47;5.60;;;17.20;99.90;;;16.97;100.00;97208.03;5004248;28;20031;-45
2022/06/05 01:07:52;;;;;;;6.15;5.55;;;17.20;99.90;;;16.97;100.00;97209.88;5004253;28;20049;-45
2022/06/05 01:10:20;;;;;;;6.15;5.40;;;17.20;99.90;;;16.95;100.00;97217.94;5004597;28;20115;-44
2022/06/05 01:13:04;;;;;;;6.28;5.00;;;17.20;99.90;;;16.93;100.00;97221.69;5006069;28;20033;-44
2022/06/05 01:15:41;;;;;;;6.10;5.28;;;17.10;99.90;;;16.91;100.00;97229.78;5002432;28;20033;-46
2022/06/05 01:18:54;;;;;;;6.55;5.78;;;17.10;99.90;;;16.88;100.00;97226.47;5007457;28;20121;-42
2022/06/05 01:22:07;;;;;;;6.43;5.45;;;17.10;99.90;;;16.85;100.00;97239.97;5003046;28;20030;-44
2022/06/05 01:25:21;;;;;;;7.05;6.20;;;17.10;99.90;;;16.81;100.00;97239.28;5000651;28;20026;-42
2022/06/05 01:27:55;;;;;;;6.85;5.63;;;17.00;99.90;;;16.80;100.00;97246.41;4996780;28;20042;-42
2022/06/05 01:30:24;;;;;;;8.23;5.25;;;17.00;99.90;;;16.77;100.00;97251.09;5011110;28;20026;-46
2022/06/05 01:32:59;;;;;;;6.40;5.05;;;17.00;99.90;;;16.72;100.00;97267.34;5006228;28;20100;-43
2022/06/05 01:35:56;;;;;;;5.50;5.00;;;17.00;99.90;;;16.66;100.00;97259.75;5022571;28;20026;-45
2022/06/05 01:38:33;;;;;;;6.75;5.03;;;16.90;99.90;;;16.59;100.00;97253.97;5006778;28;20363;-45
2022/06/05 01:41:19;;;;;;;5.30;4.80;;;16.80;99.90;;;16.55;100.00;97254.28;5002520;28;20080;-43
2022/06/05 01:43:49;;;;;;;6.00;5.40;;;16.70;99.90;;;16.50;100.00;97251.88;5000949;28;20062;-47
2022/06/05 01:46:21;;;;;;;6.43;5.82;;;16.70;99.90;;;16.46;100.00;97250.38;5003982;28;20018;-44
2022/06/05 01:48:58;;;;;;;6.50;5.88;;;16.70;99.90;;;16.45;100.00;97251.31;5006620;28;20509;-44
2022/06/05 01:51:36;;;;;;;6.82;6.13;;;16.60;99.90;;;16.44;100.00;97248.75;5006905;28;20482;-46
2022/06/05 01:54:10;;;;;;;6.50;5.45;;;16.60;99.90;;;16.44;100.00;97238.97;5003305;28;20085;-47
2022/06/05 01:56:41;;;;;;;8.10;5.65;;;16.70;99.90;;;16.41;100.00;97217.88;4995190;28;20022;-46
2022/06/05 01:59:15;;;;;;;6.53;5.93;;;16.70;99.90;;;16.48;100.00;97211.22;5002802;28;20053;-46
2022/06/05 02:01:48;;;;;;;7.22;6.47;;;16.60;99.90;;;16.44;100.00;97200.84;5014485;28;20023;-43
2022/06/05 02:04:41;;;;;;;6.95;5.72;;;16.70;99.90;;;16.50;100.00;97193.31;5009150;28;20032;-42
2022/06/05 02:07:12;;;;;;;;;;;16.70;99.90;;;16.49;100.00;97185.44;4996197;28;20034;-44
2022/06/05 02:10:07;;;;;;;6.28;5.68;;;16.70;99.90;;;16.55;100.00;97191.22;5003915;28;19920;-42
2022/06/05 02:12:34;;;;;;;9.30;6.45;;;16.70;99.90;;;16.54;100.00;97188.66;5005948;28;20026;-43
2022/06/05 02:15:01;;;;;;;6.13;5.40;;;16.80;99.90;;;16.54;100.00;97192.16;4999821;28;20053;-42
2022/06/05 02:17:27;;;;;;;5.88;5.38;;;16.70;99.90;;;16.55;100.00;97196.56;5008489;28;20018;-43
2022/06/05 02:19:53;;;;;;;8.05;5.88;;;16.70;99.90;;;16.56;100.00;97189.41;5042722;22;20075;-42
2022/06/05 02:22:27;;;;;;;6.45;5.85;;;16.70;99.90;;;16.56;100.00;97166.34;5021071;28;20022;-42
2022/06/05 02:24:56;;;;;;;6.22;5.63;;;16.80;99.90;;;16.57;100.00;97154.72;5023009;28;20100;-42
2022/06/05 02:27:24;;;;;;;6.53;5.90;;;16.80;99.90;;;16.57;100.00;97138.75;5027106;28;20028;-42
2022/06/05 02:29:51;;;;;;;8.52;5.93;;;16.70;99.90;;;16.61;100.00;97118.09;5020017;28;20065;-42
2022/06/05 02:33:01;;;;;;;11.07;7.35;;;16.80;99.90;;;16.54;100.00;97109.66;5008576;28;20036;-42
2022/06/05 02:35:38;;;;;;;7.20;6.07;;;16.70;99.90;;;16.50;100.00;97089.53;4996431;28;20027;-42
2022/06/05 02:38:37;;;;;;;7.78;6.18;;;16.70;99.90;;;16.52;100.00;97058.31;5006164;28;20185;-44
2022/06/05 02:41:17;;;;;;;12.15;8.85;;;16.70;99.90;;;16.58;100.00;97039.31;4998289;28;20386;-42
2022/06/05 02:47:40;;;;;;;10.18;7.97;;;16.80;99.90;;;16.69;100.00;97041.25;5002754;28;20040;-42
2022/06/05 02:50:26;;;;;;;9.25;8.30;;;16.90;99.90;;;16.74;100.00;97033.81;4997894;28;20078;-44
2022/06/05 02:53:02;;;;;;;10.27;8.40;;;16.90;99.90;;;16.77;100.00;97046.88;5017814;28;20022;-44
2022/06/05 02:55:28;;;;;;;11.73;9.00;;;17.00;99.90;;;16.83;100.00;97060.75;4992974;28;20025;-43
2022/06/05 02:57:54;;;;;;;9.15;7.53;;;17.00;99.90;;;16.87;100.00;97068.47;5003587;28;20046;-43
2022/06/05 03:00:26;;;;;;;8.35;7.38;;;17.10;99.90;;;16.86;100.00;97074.75;4999020;28;20089;-46
2022/06/05 03:05:38;;;;;;;7.22;6.28;;;17.10;99.90;;;16.93;100.00;97085.84;4996678;28;20088;-44
2022/06/05 03:08:06;;;;;;;8.15;6.45;;;17.20;99.90;;;16.92;100.00;97079.66;4996715;28;20056;-43
2022/06/05 03:10:32;;;;;;;7.32;6.22;;;17.10;99.90;;;16.92;100.00;97084.13;4991048;28;20117;-43
2022/06/05 03:12:57;;;;;;;7.22;5.90;;;17.10;99.90;;;16.92;100.00;97078.78;5003096;28;20664;-43
2022/06/05 03:15:23;;;;;;;7.35;6.47;;;17.10;99.90;;;16.90;100.00;97070.91;5001367;28;20449;-47
2022/06/05 03:17:49;;;;;;;8.32;6.53;;;17.10;99.90;;;16.89;100.00;97066.56;4995796;28;20038;-43
2022/06/05 03:20:16;;;;;;;7.97;7.18;;;17.10;99.90;;;16.90;100.00;97048.75;5002861;28;20029;-43
2022/06/05 03:22:42;;;;;;;9.63;8.63;;;17.10;99.90;;;16.87;100.00;97023.19;4994696;28;20593;-45
2022/06/05 03:25:09;;;;;;;10.60;8.50;;;17.10;99.90;;;16.93;100.00;97024.59;4997554;28;20025;-44
2022/06/05 03:27:35;;;;;;;8.70;7.47;;;17.10;99.90;;;16.93;100.00;97017.44;4999333;28;20026;-45
2022/06/05 03:30:01;;;;;;;7.88;7.07;;;17.20;99.90;;;16.98;100.00;97020.63;5002245;28;20276;-43
2022/06/05 03:32:27;;;;;;;8.90;7.38;;;17.20;99.90;;;16.99;100.00;97013.50;4998585;28;20033;-45
2022/06/05 03:34:53;;;;;;;7.57;6.63;;;17.20;99.90;;;17.03;100.00;97014.13;5008227;28;20100;-43
2022/06/05 03:37:20;;;;;;;8.13;7.32;;;17.20;99.90;;;17.04;100.00;97022.03;4995343;28;20511;-43
2022/06/05 03:39:46;;;;;;;7.70;6.90;;;17.30;99.90;;;17.04;100.00;97027.34;4999022;28;20053;-43
2022/06/05 03:42:12;;;;;;;8.23;7.43;;;17.30;99.90;;;17.05;100.00;97041.50;5009119;28;20033;-45
2022/06/05 03:44:41;;;;;;;7.45;6.30;;;17.30;99.90;;;17.00;100.00;97038.34;4996223;28;20405;-43
2022/06/05 03:47:09;;;;;;;7.32;6.53;;;17.30;99.90;;;17.04;100.00;97056.66;4994885;28;20029;-43
2022/06/05 03:49:35;;;;;;;11.38;7.90;;;17.20;99.90;;;17.03;100.00;97076.28;4995114;28;20026;-46
2022/06/05 03:52:06;;;;;;;10.60;7.85;;;17.30;99.90;;;17.04;100.00;97098.44;5000845;28;20053;-45
2022/06/05 03:54:33;;;;;;;10.15;8.13;;;17.30;99.90;;;16.98;100.00;97119.19;5006869;28;20027;-43
2022/06/05 03:57:00;;;;;;;9.15;7.93;;;17.30;99.90;;;17.03;100.00;97155.31;4998623;28;20030;-43
2022/06/05 03:59:26;;;;;;;10.20;8.70;;;17.30;99.90;;;16.99;100.00;97157.34;4999107;28;21289;-42
2022/06/05 04:01:52;;;;;;;9.63;7.93;;;17.20;99.90;;;16.94;100.00;97173.66;4992981;28;20026;-45
2022/06/05 04:04:17;;;;;;;9.75;7.53;;;17.20;99.90;;;16.92;100.00;97175.56;4992876;28;20057;-43
2022/06/05 04:06:44;;;;;;;8.90;8.00;;;17.10;99.90;;;16.86;100.00;97167.97;5003770;28;20046;-43
2022/06/05 04:09:10;;;;;;;8.48;7.43;;;17.10;99.90;;;16.84;100.00;97161.88;4998114;28;20125;-42
2022/06/05 04:11:39;;;;;;;9.27;7.93;;;17.10;99.90;;;16.80;100.00;97139.91;5003775;28;20018;-44
2022/06/05 04:14:05;;;;;;;7.22;6.53;;;17.00;99.90;;;16.77;100.00;97131.25;5004700;28;20022;-45
2022/06/05 04:16:32;;;;;;;8.13;6.93;;;17.00;99.90;;;16.72;100.00;97115.56;5000716;28;20022;-43
2022/06/05 04:19:00;;;;;;;10.15;6.95;;;16.90;99.90;;;16.68;100.00;97107.91;5001431;28;20064;-46
2022/06/05 04:21:34;;;;;;;7.47;6.72;;;16.90;99.90;;;16.66;100.00;97093.84;4997109;28;20544;-43
2022/06/05 04:24:00;;;;;;;8.93;8.02;;;16.80;99.90;;;16.58;100.00;97073.03;5001989;28;20041;-42
2022/06/05 04:26:33;;;;;;;10.00;8.52;;;16.80;99.90;;;16.51;100.00;97069.94;5007248;28;20048;-42
2022/06/05 04:28:59;;;;;;;10.02;8.05;;;16.70;99.90;;;16.44;100.00;97073.09;5000368;28;20091;-43
2022/06/05 04:31:31;;;;;;;12.70;10.68;;;16.60;99.90;;;16.41;100.00;97085.66;5001220;28;20128;-43
2022/06/05 04:34:01;;;;;;;10.88;8.65;;;16.60;99.90;;;16.39;100.00;97113.34;5004593;28;20030;-42
2022/06/05 04:36:27;;;;;;;12.25;8.43;;;16.60;99.90;;;16.38;100.00;97125.78;5012700;28;20470;-44
2022/06/05 04:38:53;;;;;;;11.23;10.15;;;16.60;99.90;;;16.38;100.00;97123.13;5006021;28;20022;-43
2022/06/05 04:41:20;;;;;;;15.70;12.07;;;16.60;99.90;;;16.40;100.00;97125.66;4999625;28;20030;-42
2022/06/05 04:43:48;;;;;;;15.38;11.98;;;16.60;99.90;;;16.36;100.00;97129.50;5009789;28;20030;-46
2022/06/05 04:46:16;;;;;;;13.48;11.48;;;16.60;99.90;;;16.29;100.00;97133.50;4996793;28;20030;-42
2022/06/05 04:48:42;;;;;;;12.93;11.35;;;16.50;99.90;;;16.30;100.00;97151.19;5003723;28;20029;-44
2022/06/05 04:51:10;;;;;;;13.10;11.50;;;16.50;99.90;;;16.28;100.00;97153.09;4998302;28;20478;-45
2022/06/05 04:53:36;;;;;;;16.48;12.40;;;16.50;99.90;;;16.22;100.00;97149.00;5007487;28;20087;-43
2022/06/05 04:56:07;;;;;;;14.60;13.10;;;16.50;99.90;;;16.27;100.00;97157.53;5001224;28;20030;-44
2022/06/05 04:58:33;;;;;;;13.32;12.02;;;16.50;99.90;;;16.26;100.00;97160.28;5009827;28;20038;-42
2022/06/05 05:00:59;;;;;;;14.23;11.63;;;16.50;99.90;;;16.23;100.00;97156.88;5003520;28;20026;-43
2022/06/05 05:03:25;;;;;;;19.85;14.25;;;16.50;99.90;;;16.22;100.00;97176.47;5001818;28;20033;-44
2022/06/05 05:05:51;;;;;;;14.60;13.10;;;16.40;99.90;;;16.18;100.00;97188.25;5004762;28;20036;-43
2022/06/05 05:08:16;;;;;;;14.25;12.18;;;16.40;99.90;;;16.18;100.00;97203.34;5002321;28;20387;-45
2022/06/05 05:10:42;;;;;;;14.73;13.15;;;16.40;99.90;;;16.21;100.00;97221.81;4999824;28;20461;-43
2022/06/05 05:13:08;;;;;;;17.80;13.20;;;16.40;99.90;;;16.20;100.00;97215.63;4996293;28;20026;-44
2022/06/05 05:15:34;;;;;;;14.50;12.82;;;16.40;99.90;;;16.19;100.00;97218.38;4999473;28;20415;-45
2022/06/05 05:18:00;;;;;;;15.05;11.50;;;16.40;99.90;;;16.19;100.00;97221.88;5010814;28;20030;-43
2022/06/05 05:20:26;;;;;;;14.75;13.23;;;16.40;99.90;;;16.18;100.00;97228.16;4998558;28;20040;-43
2022/06/05 05:22:52;;;;;;;16.13;14.18;;;16.40;99.90;;;16.19;100.00;97245.00;5000348;28;20029;-43
2022/06/05 05:25:18;;;;;;;13.68;12.27;;;16.40;99.90;;;16.18;100.00;97260.06;5002139;28;20505;-43
2022/06/05 05:27:44;;;;;;;15.52;13.93;;;16.40;99.90;;;16.19;100.00;97256.47;5000640;28;20037;-44
2022/06/05 05:30:12;;;;;;;16.10;13.93;;;16.50;99.90;;;16.18;100.00;97249.44;4997419;28;20030;-45
2022/06/05 05:32:38;;;;;;;14.02;12.60;;;16.40;99.90;;;16.17;100.00;97233.59;5000653;28;20022;-43
2022/06/05 05:35:06;;;;;;;13.75;12.13;;;16.40;99.90;;;16.17;100.00;97207.00;5010477;28;20033;-43
2022/06/05 05:37:32;;;;;;;18.33;15.68;;;16.40;99.90;;;16.20;100.00;97175.72;4999804;28;20034;-45
2022/06/05 05:42:42;;;;;;;21.80;13.38;;;16.50;99.90;;;16.22;100.00;97173.81;4999879;28;20105;-43
2022/06/05 05:45:08;;;;;;;15.20;13.20;;;16.50;99.90;;;16.22;100.00;97187.13;5000548;28;20404;-42
2022/06/05 05:47:34;;;;;;;13.45;12.13;;;16.50;99.90;;;16.21;100.00;97206.69;5002418;28;20073;-41
2022/06/05 05:50:13;;;;;;;13.35;11.95;;;16.40;99.90;;;16.23;100.00;97242.03;5000022;28;20030;-42
2022/06/05 05:52:39;;;;;;;16.50;14.77;;;16.50;99.90;;;16.22;100.00;97258.97;4997828;28;20378;-44
2022/06/05 05:55:05;;;;;;;21.25;15.27;;;16.50;99.90;;;16.32;100.00;97285.84;5004151;28;20026;-47
2022/06/05 05:57:31;;;;;;;15.95;14.25;;;16.50;99.90;;;16.29;100.00;97277.19;4994350;28;20026;-43
2022/06/05 05:59:57;;;;;;;12.30;11.02;;;16.60;99.90;;;16.35;100.00;97272.34;5004097;28;20042;-42
2022/06/05 06:02:25;;;;;;;16.98;13.00;;;16.60;99.90;;;16.36;100.00;97257.22;4994506;28;20030;-43
2022/06/05 06:04:52;;;;;;;17.30;13.88;;;16.60;99.90;;;16.35;100.00;97255.53;5001449;28;20030;-44
2022/06/05 06:07:19;;;;;;;14.70;13.18;;;16.60;99.90;;;16.38;100.00;97218.06;5001941;28;20494;-45
2022/06/05 06:09:45;;;;;;;20.45;15.18;;;16.60;99.90;;;16.39;100.00;97185.19;4995763;28;20065;-42
2022/06/05 06:12:12;;;;;;;17.92;12.85;;;16.60;99.90;;;16.41;100.00;97148.69;4995873;28;20046;-44
2022/06/05 06:14:39;;;;;;;16.88;13.68;;;16.60;99.90;;;16.40;100.00;97142.50;5002122;28;20038;-43
2022/06/05 06:17:05;;;;;;;14.30;12.73;;;16.70;99.90;;;16.40;100.00;97131.00;4997961;28;20041;-47
2022/06/05 06:19:31;;;;;;;17.88;13.13;;;16.60;99.90;;;16.32;100.00;97138.63;5002655;28;20248;-44
2022/06/05 06:21:57;;;;;;;14.90;12.68;;;16.60;99.90;;;16.37;100.00;97133.88;5000426;28;20034;-43
2022/06/05 06:24:23;;;;;;;15.20;13.18;;;16.60;99.90;;;16.35;100.00;97106.50;5002263;28;20174;-43
2022/06/05 06:26:49;;;;;;;17.40;13.15;;;16.60;99.90;;;16.33;100.00;97111.06;5007762;28;20049;-44
2022/06/05 06:29:14;;;;;;;18.77;11.82;;;16.60;99.90;;;16.30;100.00;97076.69;4997962;28;20425;-46
2022/06/05 06:31:42;;;;;;;13.07;11.38;;;16.50;99.90;;;16.26;100.00;97068.03;5008890;28;20041;-43
2022/06/05 06:34:08;;;;;;;21.73;10.75;;;16.50;99.90;;;16.21;100.00;97068.34;4996302;28;20026;-44
2022/06/05 06:36:34;;;;;;;10.00;9.00;;;16.50;99.90;;;16.16;100.00;97070.44;5005602;28;20033;-42
2022/06/05 06:39:00;;;;;;;13.45;10.32;;;16.40;99.90;;;16.15;100.00;97067.88;5007432;28;20096;-42
2022/06/05 06:41:26;;;;;;;16.20;10.38;;;16.40;99.90;;;16.16;100.00;97067.78;4999326;28;20822;-45
2022/06/05 06:43:52;;;;;;;16.73;10.45;;;16.40;99.90;;;16.10;100.00;97048.72;5012508;28;20121;-47
2022/06/05 06:46:19;;;;;;;16.60;11.20;;;16.40;99.90;;;16.14;100.00;97008.50;4995531;28;20068;-43
2022/06/05 06:48:46;;;;;;;15.52;9.90;;;16.40;99.90;;;16.11;100.00;96989.22;5001066;28;20034;-43
2022/06/05 06:51:13;;;;;;;14.93;9.05;;;16.30;99.90;;;16.12;100.00;97028.19;4997405;28;20426;-44
2022/06/05 06:53:40;;;;;;;10.23;7.93;;;16.30;99.90;;;16.10;100.00;97011.47;4997454;28;20026;-42
2022/06/05 06:56:20;;;;;;;10.73;8.50;;;16.30;99.90;;;16.12;100.00;96994.44;5001789;28;20025;-44
2022/06/05 06:58:46;;;;;;;9.30;7.45;;;16.30;99.90;;;16.10;100.00;96952.97;5004706;28;20045;-43
2022/06/05 07:01:13;;;;;;;9.15;7.30;;;16.30;99.90;;;16.11;100.00;96955.50;4999051;28;20018;-42
2022/06/05 07:03:39;;;;;;;11.93;6.32;;;16.30;99.90;;;16.11;100.00;96938.69;4996502;28;20022;-44
2022/06/05 07:06:09;;;;;;;12.18;6.35;;;16.30;99.90;;;16.12;100.00;96925.28;5001330;28;20052;-45
2022/06/05 07:08:36;;;;;;;12.18;6.75;;;16.30;99.90;;;16.13;100.00;96953.59;4995880;28;20029;-46
2022/06/05 07:11:05;;;;;;;7.40;6.43;;;16.30;99.90;;;16.09;100.00;96978.69;5001870;28;20477;-44
2022/06/05 07:13:31;;;;;;;8.95;7.55;;;16.30;99.90;;;16.07;100.00;97006.34;5009189;28;20026;-44
2022/06/05 07:15:56;;;;;;;8.48;7.13;;;16.30;99.90;;;16.05;100.00;96986.97;5000470;28;20032;-43
2022/06/05 07:18:23;;;;;;;13.43;8.38;;;16.30;99.90;;;16.08;100.00;97022.22;5005941;28;20426;-46
2022/06/05 07:20:49;;;;;;;9.95;8.02;;;16.30;99.90;;;16.08;100.00;96987.63;5002190;28;20030;-45
2022/06/05 07:23:15;;;;;;;6.88;6.15;;;16.30;99.90;;;16.08;100.00;97000.94;5010152;28;20321;-47
2022/06/05 07:25:50;;;;;;;13.02;7.25;;;16.30;99.90;;;16.05;100.00;96987.81;5000074;28;20125;-46
2022/06/05 07:28:17;;;;;;;12.52;7.95;;;16.30;99.90;;;15.97;100.00;96977.69;4992872;28;20026;-45
2022/06/05 07:30:48;;;;;;;8.88;7.43;;;16.20;99.90;;;15.95;100.00;97013.31;5003176;28;20021;-44
2022/06/05 07:33:15;;;;;;;8.68;6.82;;;16.20;99.90;;;15.95;100.00;96997.34;5004967;28;20548;-43
2022/06/05 07:35:42;;;;;;;7.50;6.68;;;16.20;99.90;;;15.95;100.00;96982.28;5001690;28;20030;-43
2022/06/05 07:38:09;;;;;;;8.32;6.13;;;16.20;99.90;;;15.98;100.00;96966.09;4996644;28;20030;-45
2022/06/05 07:40:42;;;;;;;7.43;5.25;;;16.20;99.90;;;16.01;100.00;96968.56;4998919;28;20101;-43
2022/06/05 07:43:09;;;;;;;10.20;7.57;;;16.20;99.90;;;16.03;100.00;96961.31;4993248;28;20137;-44
2022/06/05 07:45:37;;;;;;;7.38;5.82;;;16.30;99.90;;;16.06;100.00;96968.25;5004613;28;20378;-44
2022/06/05 07:48:04;;;;;;;5.60;4.90;;;16.30;99.90;;;16.09;100.00;96984.00;4998784;28;20037;-47
2022/06/05 07:50:29;;;;;;;7.15;5.35;;;16.30;99.90;;;16.14;100.00;96992.53;5011986;28;20018;-45
2022/06/05 07:55:39;;;;;;;8.63;6.18;;;16.40;99.90;;;16.21;100.00;97014.28;4997304;28;20033;-46
2022/06/05 07:58:05;;;;;;;7.20;5.95;;;16.40;99.90;;;16.30;100.00;97021.66;5008054;28;20026;-44
2022/06/05 08:00:31;;;;;;;8.27;5.97;;;16.50;99.90;;;16.38;100.00;97031.78;4994014;28;20022;-42
2022/06/05 08:02:56;;;;;;;6.60;5.38;;;16.60;99.90;;;16.51;100.00;97024.69;5001468;28;20292;-42
2022/06/05 08:05:22;;;;;;;6.47;4.82;;;16.70;99.90;;;16.65;100.00;97017.59;4999673;28;20414;-43
2022/06/05 08:07:48;;;;;;;9.55;4.97;;;16.80;99.90;;;16.80;100.00;97006.75;5001211;28;20356;-43
2022/06/05 08:10:14;;;;;;;7.07;4.95;;;17.00;99.90;;;16.90;100.00;96995.50;4999452;28;20474;-44
2022/06/05 08:12:39;;;;;;;9.32;5.00;;;17.10;99.90;;;16.99;100.00;97000.16;5002559;28;20019;-47
2022/06/05 08:15:12;;;;;;;7.15;4.57;;;17.20;99.90;;;17.10;100.00;96992.31;4997501;28;20549;-45
2022/06/05 08:17:38;;;;;;;5.93;4.22;;;17.30;99.90;;;17.31;100.00;97005.91;4998019;28;20029;-47
2022/06/05 08:20:08;;;;;;;11.35;4.25;;;17.50;99.90;;;17.51;100.00;97012.50;5000023;28;20038;-47
2022/06/05 08:22:35;;;;;;;6.93;3.95;;;17.70;99.90;;;17.80;100.00;97016.72;4993080;28;20030;-46
2022/06/05 08:25:00;;;;;;;6.50;3.60;;;18.00;99.90;;;17.90;100.00;97017.78;5025190;23;20045;-48
2022/06/05 08:27:28;;;;;;;5.65;3.08;;;18.20;99.90;;;18.12;100.00;96998.38;5016005;28;20119;-48
2022/06/05 08:29:58;;;;;;;8.75;3.20;;;18.50;99.90;;;18.44;100.00;97005.81;5020114;28;20033;-47
2022/06/05 08:32:26;;;;;;;4.50;2.97;;;18.70;99.90;;;18.72;100.00;97001.91;5019852;28;20401;-46
2022/06/05 08:34:52;;;;;;;3.85;2.83;;;19.00;99.90;;;18.97;100.00;97010.72;5006640;28;20041;-47
2022/06/05 08:43:18;;;;;;;2.67;2.25;;;19.80;99.90;;;19.95;100.00;97011.03;5004354;28;20033;-48
2022/06/05 08:46:12;;;;;;;5.15;2.50;;;20.20;99.90;;;20.19;100.00;97004.66;5004910;28;20096;-49
2022/06/05 08:48:53;;;;;;;4.20;1.85;;;20.60;99.90;;;20.39;100.00;96998.50;5002544;28;20337;-48
2022/06/05 08:51:53;;;;;;;2.53;1.80;;;20.70;99.90;;;20.56;100.00;96999.75;5003329;28;20026;-48
2022/06/05 08:54:56;;;;;;;4.10;1.88;;;20.90;99.90;;;20.82;100.00;97007.47;5002189;28;20104;-47
2022/06/05 08:57:30;;;;;;;2.70;1.73;;;21.10;99.90;;;21.05;100.00;97002.81;4993622;28;20027;-45
2022/06/05 09:00:08;;;;;;;4.80;1.95;;;21.30;99.90;;;21.42;100.00;97013.03;5023958;28;20096;-49
2022/06/05 09:02:45;;;;;;;4.30;1.80;;;21.60;99.90;;;21.67;100.00;97003.72;5008689;28;20389;-49
2022/06/05 09:05:37;;;;;;;3.38;1.80;;;22.00;99.90;;;21.99;100.00;96994.63;5007766;28;20383;-47
2022/06/05 09:08:11;;;;;;;4.32;1.60;;;22.30;99.90;;;22.27;100.00;97003.75;5006968;28;20060;-49
2022/06/05 09:10:43;;;;;;;3.50;1.92;;;22.60;99.90;;;22.43;100.00;97005.03;5000890;28;20058;-47
2022/06/05 09:13:28;;;;;;;3.92;1.67;;;22.70;99.90;;;22.27;100.00;96998.41;5008697;28;20048;-46
2022/06/05 09:16:08;;;;;;;5.22;1.70;;;22.60;99.90;;;22.23;100.00;97001.44;5016049;28;20030;-50
2022/06/05 09:18:37;;;;;;;2.13;1.42;;;22.50;99.90;;;22.35;100.00;97010.28;5002147;28;20026;-48
2022/06/05 09:21:46;;;;;;;1.45;1.30;;;22.60;99.90;;;22.33;99.92;97018.47;5007490;28;20029;-51
2022/06/05 09:24:19;;;;;;;2.88;1.60;;;22.60;99.90;;;22.20;97.51;97040.19;5002375;28;20034;-50
2022/06/05 09:27:20;;;;;;;3.30;1.55;;;22.50;99.90;;;22.21;96.95;97023.06;5011923;28;20018;-48
2022/06/05 09:30:05;;;;;;;3.92;1.80;;;22.50;99.90;;;22.24;100.00;97025.50;4995744;28;20041;-49
2022/06/05 09:33:12;;;;;;;2.83;1.15;;;22.60;99.90;;;22.27;99.24;97049.44;5006491;28;20498;-50
2022/06/05 09:35:40;;;;;;;1.67;1.40;;;22.50;99.90;;;22.33;99.74;97033.75;5006989;28;20029;-48
2022/06/05 09:38:24;;;;;;;2.97;1.33;;;22.50;99.90;;;22.27;100.00;97036.00;5006262;28;20678;-47
2022/06/05 09:41:11;;;;;;;3.70;1.70;;;22.50;99.90;;;22.29;100.00;97038.56;5005084;28;20027;-50
2022/06/05 09:44:25;;;;;;;2.90;1.52;;;22.50;99.90;;;22.46;100.00;97042.38;5002209;28;20034;-48
2022/06/05 09:46:59;;;;;;;4.25;1.80;;;22.70;99.90;;;22.68;100.00;97060.06;5006724;28;21985;-50
2022/06/05 09:49:51;;;;;;;3.63;1.20;;;22.90;99.90;;;22.94;94.21;97059.53;5000690;28;20195;-50
2022/06/05 09:52:22;;;;;;;3.92;1.20;;;23.20;99.90;;;23.01;91.22;97060.66;5003661;28;20072;-47
2022/06/05 09:55:20;;;;;;;3.13;1.30;;;23.30;99.90;;;23.14;92.62;97069.28;5004550;28;20533;-49
2022/06/05 09:58:26;;;;;;;5.45;1.20;;;23.30;99.90;;;23.17;94.02;97071.69;4996716;28;20046;-47
2022/06/05 10:00:59;;;;;;;3.70;1.20;;;23.30;99.90;;;23.23;90.13;97075.66;5007871;28;20034;-49
2022/06/05 10:03:38;;;;;;;2.88;1.33;;;23.40;99.90;;;23.35;88.09;97071.81;5003609;28;20060;-50
2022/06/05 10:06:23;;;;;;;4.50;1.17;;;23.60;99.90;;;23.49;86.69;97080.41;5002588;28;20022;-49
2022/06/05 10:09:22;;;;;;;2.45;1.48;;;23.80;99.90;;;23.47;88.47;97077.03;5002747;28;20030;-50
2022/06/05 10:12:07;;;;;;;1.92;1.25;;;23.80;99.90;;;23.78;86.12;97081.19;5015921;28;20030;-46
2022/06/05 10:14:50;;;;;;;3.30;1.20;;;24.10;99.90;;;24.03;87.01;97089.63;5004138;28;20069;-48
2022/06/05 10:17:31;;;;;;;2.83;1.08;;;24.40;99.90;;;24.17;85.24;97090.97;5002821;28;20032;-47
2022/06/05 10:20:36;;;;;;;3.42;1.30;;;24.40;99.90;;;24.03;82.98;97095.00;5005174;28;20113;-48
2022/06/05 10:23:32;;;;;;;3.80;1.02;;;24.40;99.90;;;24.10;83.56;97089.84;5005667;28;20210;-48
2022/06/05 10:26:18;;;;;;;2.35;1.10;;;24.40;99.90;;;23.99;83.70;97096.28;5002020;28;20067;-47
2022/06/05 10:28:45;;;;;;;4.90;1.30;;;24.30;99.90;;;23.72;84.03;97080.91;5002755;28;20022;-49
2022/06/05 10:31:20;;;;;;;2.35;1.00;;;24.10;99.90;;;23.68;87.73;97101.06;5006656;28;20033;-48
2022/06/05 10:33:53;;;;;;;4.50;1.30;;;24.00;99.90;;;23.53;90.52;97089.91;5005492;28;20136;-49
2022/06/05 10:36:34;;;;;;;4.88;1.40;;;23.80;99.90;;;23.34;91.82;97083.56;5007266;28;20489;-46
2022/06/05 10:39:19;;;;;;;2.63;1.40;;;23.60;99.90;;;22.96;91.32;97081.72;5001832;28;20064;-48
2022/06/05 10:41:54;;;;;;;2.55;1.20;;;23.30;99.90;;;22.53;96.89;97077.59;5006008;28;20048;-48
2022/06/05 10:45:11;;;;;;;3.42;1.73;;;22.90;99.90;;;22.22;98.92;97069.59;5002875;28;20029;-48
2022/06/05 10:47:55;;;;;;;4.25;1.48;;;22.50;99.90;;;21.95;100.00;97064.84;4988892;28;20053;-48
2022/06/05 10:50:43;;;;;;;10.48;2.35;;;22.30;99.90;;;21.76;100.00;97049.53;5003116;28;20029;-46
2022/06/05 10:53:47;;;;;;;8.38;2.30;;;22.00;99.90;;;21.39;100.00;97071.47;5005546;28;20041;-49